sensor_id;sensor_type;location;lat;lon;timestamp;P1;durP1;ratioP1;P2;durP2;ratioP2
36547;SDS011;22551;52.206;4.856;2023-05-13T00:04:41;4.88;;;3.95;;
36547;SDS011;22551;52.206;4.856;2023-05-13T00:09:43;7.85;;;4.68;;
36547;SDS011;22551;52.206;4.856;2023-05-13T00:14:47;6.57;;;5.00;;
36547;SDS011;22551;52.206;4.856;2023-05-13T00:19:49;9.83;;;5.20;;
36547;SDS011;22551;52.206;4.856;2023-05-13T00:24:51;10.88;;;4.80;;
36547;SDS011;22551;52.206;4.856;2023-05-13T00:29:55;8.48;;;5.30;;
36547;SDS011;22551;52.206;4.856;2023-05-13T00:34:58;7.22;;;5.10;;
36547;SDS011;22551;52.206;4.856;2023-05-13T00:40:01;7.00;;;5.38;;
36547;SDS011;22551;52.206;4.856;2023-05-13T00:45:05;7.93;;;5.65;;
36547;SDS011;22551;52.206;4.856;2023-05-13T00:50:09;9.57;;;5.68;;
36547;SDS011;22551;52.206;4.856;2023-05-13T00:55:12;8.85;;;5.72;;
36547;SDS011;22551;52.206;4.856;2023-05-13T01:00:16;6.53;;;5.60;;
36547;SDS011;22551;52.206;4.856;2023-05-13T01:05:25;11.65;;;5.63;;
36547;SDS011;22551;52.206;4.856;2023-05-13T01:10:37;11.07;;;6.15;;
36547;SDS011;22551;52.206;4.856;2023-05-13T01:15:48;8.45;;;5.68;;
36547;SDS011;22551;52.206;4.856;2023-05-13T01:20:57;9.85;;;6.25;;
36547;SDS011;22551;52.206;4.856;2023-05-13T01:26:03;12.40;;;5.82;;
36547;SDS011;22551;52.206;4.856;2023-05-13T01:31:05;8.07;;;5.37;;
36547;SDS011;22551;52.206;4.856;2023-05-13T01:36:09;9.00;;;5.60;;
36547;SDS011;22551;52.206;4.856;2023-05-13T01:41:14;9.63;;;5.57;;
36547;SDS011;22551;52.206;4.856;2023-05-13T01:46:16;9.13;;;5.80;;
36547;SDS011;22551;52.206;4.856;2023-05-13T01:51:19;9.50;;;5.45;;
36547;SDS011;22551;52.206;4.856;2023-05-13T01:56:26;9.88;;;5.85;;
36547;SDS011;22551;52.206;4.856;2023-05-13T02:01:28;8.90;;;5.82;;
36547;SDS011;22551;52.206;4.856;2023-05-13T02:06:30;7.45;;;5.22;;
36547;SDS011;22551;52.206;4.856;2023-05-13T02:11:34;8.85;;;5.72;;
36547;SDS011;22551;52.206;4.856;2023-05-13T02:16:36;12.60;;;5.80;;
36547;SDS011;22551;52.206;4.856;2023-05-13T02:21:39;10.65;;;5.38;;
36547;SDS011;22551;52.206;4.856;2023-05-13T02:26:43;8.63;;;5.72;;
36547;SDS011;22551;52.206;4.856;2023-05-13T02:31:46;11.07;;;6.05;;
36547;SDS011;22551;52.206;4.856;2023-05-13T02:36:48;9.98;;;5.63;;
36547;SDS011;22551;52.206;4.856;2023-05-13T02:41:52;10.18;;;6.40;;
36547;SDS011;22551;52.206;4.856;2023-05-13T02:46:54;11.02;;;5.97;;
36547;SDS011;22551;52.206;4.856;2023-05-13T02:51:57;12.13;;;6.30;;
36547;SDS011;22551;52.206;4.856;2023-05-13T02:57:00;9.38;;;5.97;;
36547;SDS011;22551;52.206;4.856;2023-05-13T03:02:02;13.02;;;6.20;;
36547;SDS011;22551;52.206;4.856;2023-05-13T03:07:05;9.93;;;6.55;;
36547;SDS011;22551;52.206;4.856;2023-05-13T03:12:09;12.60;;;6.72;;
36547;SDS011;22551;52.206;4.856;2023-05-13T03:17:11;12.68;;;8.55;;
36547;SDS011;22551;52.206;4.856;2023-05-13T03:22:13;13.20;;;7.40;;
36547;SDS011;22551;52.206;4.856;2023-05-13T03:27:17;12.20;;;8.00;;
36547;SDS011;22551;52.206;4.856;2023-05-13T03:32:20;13.77;;;7.60;;
36547;SDS011;22551;52.206;4.856;2023-05-13T03:37:24;11.73;;;7.78;;
36547;SDS011;22551;52.206;4.856;2023-05-13T03:42:27;14.43;;;7.90;;
36547;SDS011;22551;52.206;4.856;2023-05-13T03:47:30;19.52;;;8.07;;
36547;SDS011;22551;52.206;4.856;2023-05-13T03:52:32;12.50;;;8.35;;
36547;SDS011;22551;52.206;4.856;2023-05-13T03:57:36;10.45;;;7.43;;
36547;SDS011;22551;52.206;4.856;2023-05-13T04:02:40;18.25;;;8.73;;
36547;SDS011;22551;52.206;4.856;2023-05-13T04:07:43;15.15;;;7.95;;
36547;SDS011;22551;52.206;4.856;2023-05-13T04:12:47;15.45;;;8.70;;
36547;SDS011;22551;52.206;4.856;2023-05-13T04:17:50;16.23;;;8.55;;
36547;SDS011;22551;52.206;4.856;2023-05-13T04:22:53;13.20;;;9.10;;
36547;SDS011;22551;52.206;4.856;2023-05-13T04:27:57;14.25;;;9.05;;
36547;SDS011;22551;52.206;4.856;2023-05-13T04:32:59;14.90;;;10.10;;
36547;SDS011;22551;52.206;4.856;2023-05-13T04:38:03;17.08;;;9.68;;
36547;SDS011;22551;52.206;4.856;2023-05-13T04:43:07;18.20;;;10.10;;
36547;SDS011;22551;52.206;4.856;2023-05-13T04:48:09;17.77;;;9.60;;
36547;SDS011;22551;52.206;4.856;2023-05-13T04:53:11;20.23;;;10.68;;
36547;SDS011;22551;52.206;4.856;2023-05-13T04:58:15;15.55;;;8.98;;
36547;SDS011;22551;52.206;4.856;2023-05-13T05:03:17;15.27;;;9.65;;
36547;SDS011;22551;52.206;4.856;2023-05-13T05:08:19;20.83;;;9.80;;
36547;SDS011;22551;52.206;4.856;2023-05-13T05:13:23;14.95;;;9.70;;
36547;SDS011;22551;52.206;4.856;2023-05-13T05:18:25;16.77;;;9.18;;
36547;SDS011;22551;52.206;4.856;2023-05-13T05:23:27;20.60;;;9.07;;
36547;SDS011;22551;52.206;4.856;2023-05-13T05:28:31;13.70;;;8.90;;
36547;SDS011;22551;52.206;4.856;2023-05-13T05:33:33;16.50;;;8.75;;
36547;SDS011;22551;52.206;4.856;2023-05-13T05:38:36;15.15;;;9.95;;
36547;SDS011;22551;52.206;4.856;2023-05-13T05:43:39;13.95;;;9.57;;
36547;SDS011;22551;52.206;4.856;2023-05-13T05:48:41;15.35;;;8.38;;
36547;SDS011;22551;52.206;4.856;2023-05-13T05:53:44;12.52;;;8.23;;
36547;SDS011;22551;52.206;4.856;2023-05-13T05:58:47;16.40;;;9.35;;
36547;SDS011;22551;52.206;4.856;2023-05-13T06:03:49;15.88;;;9.63;;
36547;SDS011;22551;52.206;4.856;2023-05-13T06:08:52;15.75;;;9.32;;
36547;SDS011;22551;52.206;4.856;2023-05-13T06:13:55;15.27;;;9.05;;
36547;SDS011;22551;52.206;4.856;2023-05-13T06:18:57;17.05;;;10.18;;
36547;SDS011;22551;52.206;4.856;2023-05-13T06:24:00;13.07;;;8.32;;
36547;SDS011;22551;52.206;4.856;2023-05-13T06:29:04;15.20;;;8.55;;
36547;SDS011;22551;52.206;4.856;2023-05-13T06:34:06;12.60;;;7.85;;
36547;SDS011;22551;52.206;4.856;2023-05-13T06:39:15;13.07;;;8.63;;
36547;SDS011;22551;52.206;4.856;2023-05-13T06:44:19;14.43;;;8.00;;
36547;SDS011;22551;52.206;4.856;2023-05-13T06:49:21;15.07;;;8.38;;
36547;SDS011;22551;52.206;4.856;2023-05-13T06:54:24;14.45;;;8.18;;
36547;SDS011;22551;52.206;4.856;2023-05-13T06:59:28;12.48;;;7.72;;
36547;SDS011;22551;52.206;4.856;2023-05-13T07:04:30;12.07;;;6.82;;
36547;SDS011;22551;52.206;4.856;2023-05-13T07:09:32;9.07;;;6.20;;
36547;SDS011;22551;52.206;4.856;2023-05-13T07:14:36;8.95;;;5.97;;
36547;SDS011;22551;52.206;4.856;2023-05-13T07:19:38;8.63;;;5.65;;
36547;SDS011;22551;52.206;4.856;2023-05-13T07:24:40;12.10;;;5.93;;
36547;SDS011;22551;52.206;4.856;2023-05-13T07:29:44;8.88;;;6.13;;
36547;SDS011;22551;52.206;4.856;2023-05-13T07:34:46;8.07;;;5.00;;
36547;SDS011;22551;52.206;4.856;2023-05-13T07:39:49;7.22;;;5.40;;
36547;SDS011;22551;52.206;4.856;2023-05-13T07:44:53;10.63;;;5.38;;
36547;SDS011;22551;52.206;4.856;2023-05-13T07:49:58;10.73;;;4.60;;
36547;SDS011;22551;52.206;4.856;2023-05-13T13:05:33;8.85;;;5.03;;
36547;SDS011;22551;52.206;4.856;2023-05-13T13:10:36;8.95;;;5.65;;
36547;SDS011;22551;52.206;4.856;2023-05-13T13:15:39;10.98;;;5.25;;
36547;SDS011;22551;52.206;4.856;2023-05-13T13:20:41;13.07;;;5.45;;
36547;SDS011;22551;52.206;4.856;2023-05-13T13:25:44;7.97;;;5.10;;
36547;SDS011;22551;52.206;4.856;2023-05-13T13:30:47;8.27;;;5.03;;
36547;SDS011;22551;52.206;4.856;2023-05-13T13:35:50;11.48;;;6.28;;
36547;SDS011;22551;52.206;4.856;2023-05-13T13:40:52;12.35;;;4.78;;
36547;SDS011;22551;52.206;4.856;2023-05-13T13:45:56;10.40;;;5.47;;
36547;SDS011;22551;52.206;4.856;2023-05-13T13:50:58;10.00;;;5.80;;
36547;SDS011;22551;52.206;4.856;2023-05-13T13:56:00;10.30;;;5.60;;
36547;SDS011;22551;52.206;4.856;2023-05-13T14:01:04;8.32;;;4.93;;
36547;SDS011;22551;52.206;4.856;2023-05-13T14:06:06;14.05;;;5.55;;
36547;SDS011;22551;52.206;4.856;2023-05-13T14:11:08;8.60;;;5.03;;
36547;SDS011;22551;52.206;4.856;2023-05-13T14:16:12;9.13;;;4.75;;
36547;SDS011;22551;52.206;4.856;2023-05-13T14:21:14;7.63;;;4.90;;
36547;SDS011;22551;52.206;4.856;2023-05-13T14:26:17;9.60;;;4.35;;
36547;SDS011;22551;52.206;4.856;2023-05-13T14:31:21;13.83;;;5.33;;
36547;SDS011;22551;52.206;4.856;2023-05-13T14:36:23;10.38;;;4.95;;
36547;SDS011;22551;52.206;4.856;2023-05-13T14:41:26;7.13;;;4.60;;
36547;SDS011;22551;52.206;4.856;2023-05-13T14:46:30;8.07;;;5.10;;
36547;SDS011;22551;52.206;4.856;2023-05-13T14:51:34;13.93;;;5.25;;
36547;SDS011;22551;52.206;4.856;2023-05-13T14:56:36;11.13;;;5.22;;
36547;SDS011;22551;52.206;4.856;2023-05-13T15:01:41;8.32;;;4.95;;
36547;SDS011;22551;52.206;4.856;2023-05-13T15:06:44;7.40;;;4.95;;
36547;SDS011;22551;52.206;4.856;2023-05-13T15:11:46;8.80;;;4.45;;
36547;SDS011;22551;52.206;4.856;2023-05-13T15:16:49;8.60;;;4.50;;
36547;SDS011;22551;52.206;4.856;2023-05-13T15:21:52;5.47;;;4.05;;
36547;SDS011;22551;52.206;4.856;2023-05-13T15:26:54;7.72;;;3.88;;
36547;SDS011;22551;52.206;4.856;2023-05-13T15:31:58;8.80;;;3.63;;
36547;SDS011;22551;52.206;4.856;2023-05-13T15:37:00;11.45;;;4.22;;
36547;SDS011;22551;52.206;4.856;2023-05-13T15:42:02;6.07;;;4.43;;
36547;SDS011;22551;52.206;4.856;2023-05-13T15:47:06;7.35;;;3.65;;
36547;SDS011;22551;52.206;4.856;2023-05-13T15:52:08;6.80;;;3.90;;
36547;SDS011;22551;52.206;4.856;2023-05-13T15:57:11;7.25;;;3.67;;
36547;SDS011;22551;52.206;4.856;2023-05-13T16:02:15;10.20;;;4.30;;
36547;SDS011;22551;52.206;4.856;2023-05-13T16:07:18;8.10;;;3.33;;
36547;SDS011;22551;52.206;4.856;2023-05-13T16:12:20;5.78;;;3.70;;
36547;SDS011;22551;52.206;4.856;2023-05-13T16:17:26;5.95;;;3.90;;
36547;SDS011;22551;52.206;4.856;2023-05-13T16:22:30;10.35;;;4.57;;
36547;SDS011;22551;52.206;4.856;2023-05-13T16:27:36;7.47;;;4.70;;
36547;SDS011;22551;52.206;4.856;2023-05-13T16:32:43;7.97;;;3.88;;
36547;SDS011;22551;52.206;4.856;2023-05-13T16:37:51;8.52;;;3.83;;
36547;SDS011;22551;52.206;4.856;2023-05-13T16:42:54;7.88;;;4.63;;
36547;SDS011;22551;52.206;4.856;2023-05-13T16:47:58;7.68;;;4.63;;
36547;SDS011;22551;52.206;4.856;2023-05-13T16:53:00;10.43;;;4.50;;
36547;SDS011;22551;52.206;4.856;2023-05-13T16:58:02;10.95;;;5.72;;
36547;SDS011;22551;52.206;4.856;2023-05-13T17:03:06;8.93;;;5.03;;
36547;SDS011;22551;52.206;4.856;2023-05-13T17:08:08;9.52;;;4.93;;
36547;SDS011;22551;52.206;4.856;2023-05-13T17:13:10;8.40;;;4.88;;
36547;SDS011;22551;52.206;4.856;2023-05-13T17:18:14;10.38;;;4.78;;
36547;SDS011;22551;52.206;4.856;2023-05-13T17:23:16;8.60;;;5.28;;
36547;SDS011;22551;52.206;4.856;2023-05-13T17:28:19;10.65;;;5.03;;
36547;SDS011;22551;52.206;4.856;2023-05-13T17:33:22;10.20;;;5.75;;
36547;SDS011;22551;52.206;4.856;2023-05-13T17:38:25;7.82;;;5.50;;
36547;SDS011;22551;52.206;4.856;2023-05-13T17:43:27;9.25;;;5.47;;
36547;SDS011;22551;52.206;4.856;2023-05-13T17:48:31;8.35;;;5.30;;
36547;SDS011;22551;52.206;4.856;2023-05-13T17:53:34;9.60;;;5.95;;
36547;SDS011;22551;52.206;4.856;2023-05-13T17:58:37;10.52;;;6.38;;
36547;SDS011;22551;52.206;4.856;2023-05-13T18:03:41;12.52;;;5.53;;
36547;SDS011;22551;52.206;4.856;2023-05-13T18:08:43;13.90;;;6.43;;
36547;SDS011;22551;52.206;4.856;2023-05-13T18:13:45;12.73;;;7.15;;
36547;SDS011;22551;52.206;4.856;2023-05-13T18:18:49;11.73;;;6.82;;
36547;SDS011;22551;52.206;4.856;2023-05-13T18:23:51;8.40;;;6.07;;
36547;SDS011;22551;52.206;4.856;2023-05-13T18:28:53;11.80;;;6.75;;
36547;SDS011;22551;52.206;4.856;2023-05-13T18:33:57;13.57;;;6.95;;
36547;SDS011;22551;52.206;4.856;2023-05-13T18:38:59;15.53;;;7.07;;
36547;SDS011;22551;52.206;4.856;2023-05-13T18:44:01;10.23;;;6.68;;
36547;SDS011;22551;52.206;4.856;2023-05-13T18:49:05;12.75;;;6.38;;
36547;SDS011;22551;52.206;4.856;2023-05-13T18:54:08;12.73;;;7.30;;
36547;SDS011;22551;52.206;4.856;2023-05-13T18:59:11;11.68;;;7.90;;
36547;SDS011;22551;52.206;4.856;2023-05-13T19:04:15;13.57;;;8.00;;
36547;SDS011;22551;52.206;4.856;2023-05-13T19:09:17;12.43;;;7.93;;
36547;SDS011;22551;52.206;4.856;2023-05-13T19:14:22;14.02;;;7.85;;
36547;SDS011;22551;52.206;4.856;2023-05-13T19:19:26;12.47;;;7.03;;
36547;SDS011;22551;52.206;4.856;2023-05-13T19:24:28;10.30;;;7.25;;
36547;SDS011;22551;52.206;4.856;2023-05-13T19:29:30;13.10;;;7.38;;
36547;SDS011;22551;52.206;4.856;2023-05-13T19:34:34;10.82;;;7.75;;
36547;SDS011;22551;52.206;4.856;2023-05-13T19:39:36;11.35;;;7.53;;
36547;SDS011;22551;52.206;4.856;2023-05-13T19:44:39;19.02;;;8.65;;
36547;SDS011;22551;52.206;4.856;2023-05-13T19:49:42;14.90;;;8.30;;
36547;SDS011;22551;52.206;4.856;2023-05-13T19:54:45;21.17;;;9.60;;
36547;SDS011;22551;52.206;4.856;2023-05-13T19:59:47;13.18;;;8.05;;
36547;SDS011;22551;52.206;4.856;2023-05-13T20:04:51;10.73;;;8.43;;
36547;SDS011;22551;52.206;4.856;2023-05-13T20:09:54;16.02;;;8.35;;
36547;SDS011;22551;52.206;4.856;2023-05-13T20:14:56;14.18;;;8.93;;
36547;SDS011;22551;52.206;4.856;2023-05-13T20:20:02;16.40;;;9.75;;
36547;SDS011;22551;52.206;4.856;2023-05-13T20:30:09;18.02;;;9.50;;
36547;SDS011;22551;52.206;4.856;2023-05-13T20:35:14;13.48;;;9.45;;
36547;SDS011;22551;52.206;4.856;2023-05-13T20:40:17;19.92;;;9.95;;
36547;SDS011;22551;52.206;4.856;2023-05-13T20:45:20;17.67;;;10.30;;
36547;SDS011;22551;52.206;4.856;2023-05-13T20:50:26;18.25;;;10.30;;
36547;SDS011;22551;52.206;4.856;2023-05-13T20:55:29;18.63;;;11.02;;
36547;SDS011;22551;52.206;4.856;2023-05-13T21:00:34;16.65;;;9.82;;
36547;SDS011;22551;52.206;4.856;2023-05-13T21:05:39;18.40;;;11.15;;
36547;SDS011;22551;52.206;4.856;2023-05-13T21:10:41;20.58;;;10.45;;
36547;SDS011;22551;52.206;4.856;2023-05-13T21:15:44;20.92;;;9.68;;
36547;SDS011;22551;52.206;4.856;2023-05-13T21:20:48;19.15;;;10.68;;
36547;SDS011;22551;52.206;4.856;2023-05-13T21:25:52;16.58;;;10.95;;
36547;SDS011;22551;52.206;4.856;2023-05-13T21:30:55;19.00;;;12.07;;
36547;SDS011;22551;52.206;4.856;2023-05-13T21:35:58;18.42;;;11.43;;
36547;SDS011;22551;52.206;4.856;2023-05-13T21:41:03;18.27;;;11.13;;
36547;SDS011;22551;52.206;4.856;2023-05-13T21:46:06;18.63;;;11.55;;
36547;SDS011;22551;52.206;4.856;2023-05-13T21:51:09;21.20;;;12.27;;
36547;SDS011;22551;52.206;4.856;2023-05-13T21:56:12;21.10;;;11.75;;
36547;SDS011;22551;52.206;4.856;2023-05-13T22:01:14;25.30;;;12.35;;
36547;SDS011;22551;52.206;4.856;2023-05-13T22:06:17;23.95;;;12.95;;
36547;SDS011;22551;52.206;4.856;2023-05-13T22:11:20;20.17;;;12.15;;
36547;SDS011;22551;52.206;4.856;2023-05-13T22:16:24;21.47;;;12.37;;
36547;SDS011;22551;52.206;4.856;2023-05-13T22:21:28;19.25;;;10.68;;
36547;SDS011;22551;52.206;4.856;2023-05-13T22:26:30;18.90;;;11.68;;
36547;SDS011;22551;52.206;4.856;2023-05-13T22:31:33;20.58;;;10.13;;
36547;SDS011;22551;52.206;4.856;2023-05-13T22:36:37;17.70;;;10.60;;
36547;SDS011;22551;52.206;4.856;2023-05-13T22:41:40;24.03;;;10.30;;
36547;SDS011;22551;52.206;4.856;2023-05-13T22:46:43;18.27;;;11.13;;
36547;SDS011;22551;52.206;4.856;2023-05-13T22:51:46;18.92;;;10.77;;
36547;SDS011;22551;52.206;4.856;2023-05-13T22:56:51;21.38;;;11.00;;
36547;SDS011;22551;52.206;4.856;2023-05-13T23:01:53;18.88;;;9.98;;
36547;SDS011;22551;52.206;4.856;2023-05-13T23:06:58;19.30;;;10.80;;
36547;SDS011;22551;52.206;4.856;2023-05-13T23:12:01;16.35;;;10.10;;
36547;SDS011;22551;52.206;4.856;2023-05-13T23:17:03;19.83;;;9.82;;
36547;SDS011;22551;52.206;4.856;2023-05-13T23:22:08;23.92;;;10.52;;
36547;SDS011;22551;52.206;4.856;2023-05-13T23:27:10;17.60;;;9.68;;
36547;SDS011;22551;52.206;4.856;2023-05-13T23:32:13;17.25;;;9.35;;
36547;SDS011;22551;52.206;4.856;2023-05-13T23:37:17;15.60;;;9.65;;
36547;SDS011;22551;52.206;4.856;2023-05-13T23:42:20;15.77;;;9.15;;
36547;SDS011;22551;52.206;4.856;2023-05-13T23:47:23;17.20;;;9.60;;
36547;SDS011;22551;52.206;4.856;2023-05-13T23:52:26;15.65;;;9.27;;
36547;SDS011;22551;52.206;4.856;2023-05-13T23:57:29;17.67;;;9.10;;
